sensor_id;sensor_type;location;lat;lon;timestamp;pressure;altitude;pressure_sealevel;temperature;humidity
11329;BME280;5719;42.714;23.732;2023-05-17T00:01:44;93824.72;;;15.58;100.00
11329;BME280;5719;42.714;23.732;2023-05-17T00:04:12;93820.06;;;15.44;100.00
11329;BME280;5719;42.714;23.732;2023-05-17T00:06:39;93814.75;;;15.54;100.00
11329;BME280;5719;42.714;23.732;2023-05-17T00:09:06;93823.44;;;15.62;100.00
11329;BME280;5719;42.714;23.732;2023-05-17T00:11:33;93804.03;;;15.57;100.00
11329;BME280;5719;42.714;23.732;2023-05-17T00:14:00;93830.13;;;15.39;100.00
11329;BME280;5719;42.714;23.732;2023-05-17T00:16:27;93820.88;;;15.45;100.00
11329;BME280;5719;42.714;23.732;2023-05-17T00:18:54;93821.75;;;15.53;100.00
11329;BME280;5719;42.714;23.732;2023-05-17T00:21:22;93829.94;;;15.58;100.00
11329;BME280;5719;42.714;23.732;2023-05-17T00:23:49;93831.25;;;15.62;100.00
11329;BME280;5719;42.714;23.732;2023-05-17T00:26:15;93838.09;;;15.63;100.00
11329;BME280;5719;42.714;23.732;2023-05-17T00:28:42;93844.28;;;15.62;100.00
11329;BME280;5719;42.714;23.732;2023-05-17T00:31:09;93831.88;;;15.56;100.00
11329;BME280;5719;42.714;23.732;2023-05-17T00:33:36;93846.22;;;15.60;100.00
11329;BME280;5719;42.714;23.732;2023-05-17T00:36:04;93847.50;;;15.56;100.00
11329;BME280;5719;42.714;23.732;2023-05-17T00:38:32;93846.16;;;15.52;100.00
11329;BME280;5719;42.714;23.732;2023-05-17T00:40:59;93839.59;;;15.48;100.00
11329;BME280;5719;42.714;23.732;2023-05-17T00:43:26;93843.81;;;15.41;100.00
11329;BME280;5719;42.714;23.732;2023-05-17T00:45:53;93842.41;;;15.21;100.00
11329;BME280;5719;42.714;23.732;2023-05-17T00:48:19;93847.19;;;15.08;100.00
11329;BME280;5719;42.714;23.732;2023-05-17T00:50:49;93851.22;;;15.02;100.00
11329;BME280;5719;42.714;23.732;2023-05-17T00:53:17;93836.66;;;14.92;100.00
11329;BME280;5719;42.714;23.732;2023-05-17T00:55:46;93855.41;;;14.95;100.00
11329;BME280;5719;42.714;23.732;2023-05-17T00:58:13;93853.91;;;14.93;100.00
11329;BME280;5719;42.714;23.732;2023-05-17T01:00:40;93855.63;;;14.31;100.00
11329;BME280;5719;42.714;23.732;2023-05-17T01:03:07;93852.38;;;14.47;100.00
11329;BME280;5719;42.714;23.732;2023-05-17T01:05:34;93853.66;;;14.60;100.00
11329;BME280;5719;42.714;23.732;2023-05-17T01:08:01;93857.44;;;14.66;100.00
11329;BME280;5719;42.714;23.732;2023-05-17T01:10:35;93857.66;;;14.72;100.00
11329;BME280;5719;42.714;23.732;2023-05-17T01:13:09;93852.97;;;14.76;100.00
11329;BME280;5719;42.714;23.732;2023-05-17T01:15:43;93853.56;;;14.70;100.00
11329;BME280;5719;42.714;23.732;2023-05-17T01:18:15;93854.91;;;14.74;100.00
11329;BME280;5719;42.714;23.732;2023-05-17T01:20:44;93844.88;;;14.61;100.00
11329;BME280;5719;42.714;23.732;2023-05-17T01:23:30;93843.59;;;14.65;100.00
11329;BME280;5719;42.714;23.732;2023-05-17T01:26:06;93843.31;;;14.68;100.00
11329;BME280;5719;42.714;23.732;2023-05-17T01:28:35;93845.91;;;14.68;100.00
11329;BME280;5719;42.714;23.732;2023-05-17T01:31:03;93843.38;;;14.77;100.00
11329;BME280;5719;42.714;23.732;2023-05-17T01:33:31;93837.22;;;14.78;100.00
11329;BME280;5719;42.714;23.732;2023-05-17T01:35:58;93843.75;;;14.82;100.00
11329;BME280;5719;42.714;23.732;2023-05-17T01:38:25;93840.25;;;14.73;100.00
11329;BME280;5719;42.714;23.732;2023-05-17T01:40:55;93854.69;;;14.67;100.00
11329;BME280;5719;42.714;23.732;2023-05-17T01:43:30;93852.81;;;14.78;100.00
11329;BME280;5719;42.714;23.732;2023-05-17T01:46:07;93856.47;;;14.85;100.00
11329;BME280;5719;42.714;23.732;2023-05-17T01:48:39;93855.31;;;14.87;100.00
11329;BME280;5719;42.714;23.732;2023-05-17T01:51:16;93863.81;;;14.89;100.00
11329;BME280;5719;42.714;23.732;2023-05-17T01:53:47;93854.25;;;14.98;100.00
11329;BME280;5719;42.714;23.732;2023-05-17T01:56:19;93834.56;;;14.95;100.00
11329;BME280;5719;42.714;23.732;2023-05-17T01:58:47;93835.31;;;14.88;100.00
11329;BME280;5719;42.714;23.732;2023-05-17T02:01:17;93845.22;;;14.84;100.00
11329;BME280;5719;42.714;23.732;2023-05-17T02:03:47;93844.84;;;14.79;100.00
11329;BME280;5719;42.714;23.732;2023-05-17T02:06:14;93819.38;;;14.65;100.00
11329;BME280;5719;42.714;23.732;2023-05-17T02:08:42;93847.00;;;14.84;100.00
11329;BME280;5719;42.714;23.732;2023-05-17T02:11:09;93839.50;;;14.81;100.00
11329;BME280;5719;42.714;23.732;2023-05-17T02:13:36;93838.78;;;14.70;100.00
11329;BME280;5719;42.714;23.732;2023-05-17T02:16:03;93837.13;;;14.69;100.00
11329;BME280;5719;42.714;23.732;2023-05-17T02:18:31;93836.53;;;14.58;100.00
11329;BME280;5719;42.714;23.732;2023-05-17T02:21:02;93851.34;;;14.40;100.00
11329;BME280;5719;42.714;23.732;2023-05-17T02:23:29;93843.69;;;14.38;100.00
11329;BME280;5719;42.714;23.732;2023-05-17T02:25:55;93847.66;;;14.42;100.00
11329;BME280;5719;42.714;23.732;2023-05-17T02:28:22;93851.28;;;14.49;100.00
11329;BME280;5719;42.714;23.732;2023-05-17T02:30:49;93844.00;;;14.53;100.00
11329;BME280;5719;42.714;23.732;2023-05-17T02:33:17;93833.34;;;14.46;100.00
11329;BME280;5719;42.714;23.732;2023-05-17T02:35:45;93843.91;;;14.45;100.00
11329;BME280;5719;42.714;23.732;2023-05-17T02:38:14;93847.69;;;14.50;100.00
11329;BME280;5719;42.714;23.732;2023-05-17T02:40:41;93845.91;;;14.51;100.00
11329;BME280;5719;42.714;23.732;2023-05-17T02:43:08;93852.69;;;14.44;100.00
11329;BME280;5719;42.714;23.732;2023-05-17T02:45:35;93860.75;;;14.23;100.00
11329;BME280;5719;42.714;23.732;2023-05-17T02:48:02;93862.00;;;14.19;100.00
11329;BME280;5719;42.714;23.732;2023-05-17T02:50:28;93874.34;;;14.17;100.00
11329;BME280;5719;42.714;23.732;2023-05-17T02:52:57;93880.69;;;14.05;100.00
11329;BME280;5719;42.714;23.732;2023-05-17T02:55:24;93880.16;;;14.01;100.00
11329;BME280;5719;42.714;23.732;2023-05-17T02:57:51;93880.00;;;14.03;100.00
11329;BME280;5719;42.714;23.732;2023-05-17T03:00:18;93888.09;;;14.00;100.00
11329;BME280;5719;42.714;23.732;2023-05-17T03:02:44;93886.31;;;14.00;100.00
11329;BME280;5719;42.714;23.732;2023-05-17T03:05:12;93878.69;;;13.99;100.00
11329;BME280;5719;42.714;23.732;2023-05-17T03:07:38;93884.13;;;14.05;100.00
11329;BME280;5719;42.714;23.732;2023-05-17T03:10:07;93875.34;;;14.06;100.00
11329;BME280;5719;42.714;23.732;2023-05-17T03:12:34;93877.50;;;14.11;100.00
11329;BME280;5719;42.714;23.732;2023-05-17T03:15:01;93881.88;;;14.10;100.00
11329;BME280;5719;42.714;23.732;2023-05-17T03:17:28;93895.28;;;14.15;100.00
11329;BME280;5719;42.714;23.732;2023-05-17T03:19:55;93882.41;;;14.14;100.00
11329;BME280;5719;42.714;23.732;2023-05-17T03:22:22;93885.00;;;14.14;100.00
11329;BME280;5719;42.714;23.732;2023-05-17T03:24:49;93878.31;;;14.11;100.00
11329;BME280;5719;42.714;23.732;2023-05-17T03:27:17;93885.69;;;14.16;100.00
11329;BME280;5719;42.714;23.732;2023-05-17T03:29:44;93891.94;;;14.23;100.00
11329;BME280;5719;42.714;23.732;2023-05-17T03:32:11;93895.66;;;14.20;100.00
11329;BME280;5719;42.714;23.732;2023-05-17T03:34:38;93886.25;;;14.10;100.00
11329;BME280;5719;42.714;23.732;2023-05-17T03:37:05;93897.28;;;14.21;100.00
11329;BME280;5719;42.714;23.732;2023-05-17T03:39:32;93895.19;;;14.25;100.00
11329;BME280;5719;42.714;23.732;2023-05-17T03:41:59;93896.41;;;14.31;100.00
11329;BME280;5719;42.714;23.732;2023-05-17T03:44:28;93902.81;;;14.36;100.00
11329;BME280;5719;42.714;23.732;2023-05-17T03:46:54;93907.19;;;14.36;100.00
11329;BME280;5719;42.714;23.732;2023-05-17T03:49:21;93904.09;;;14.05;100.00
11329;BME280;5719;42.714;23.732;2023-05-17T03:51:48;93905.88;;;14.04;100.00
11329;BME280;5719;42.714;23.732;2023-05-17T03:54:15;93906.28;;;14.00;100.00
11329;BME280;5719;42.714;23.732;2023-05-17T03:56:42;93908.25;;;13.88;100.00
11329;BME280;5719;42.714;23.732;2023-05-17T03:59:11;93906.13;;;13.84;100.00
11329;BME280;5719;42.714;23.732;2023-05-17T04:01:40;93861.78;;;13.58;100.00
11329;BME280;5719;42.714;23.732;2023-05-17T04:04:07;93904.16;;;13.86;100.00
11329;BME280;5719;42.714;23.732;2023-05-17T04:06:34;93908.78;;;13.92;100.00
11329;BME280;5719;42.714;23.732;2023-05-17T04:09:01;93912.00;;;14.03;100.00
11329;BME280;5719;42.714;23.732;2023-05-17T04:11:29;93907.44;;;14.15;100.00
11329;BME280;5719;42.714;23.732;2023-05-17T04:13:57;93907.25;;;14.26;100.00
11329;BME280;5719;42.714;23.732;2023-05-17T04:16:24;93916.34;;;14.40;100.00
11329;BME280;5719;42.714;23.732;2023-05-17T04:18:52;93913.84;;;14.48;100.00
11329;BME280;5719;42.714;23.732;2023-05-17T04:21:19;93918.66;;;14.43;100.00
11329;BME280;5719;42.714;23.732;2023-05-17T04:23:46;93915.09;;;14.44;100.00
11329;BME280;5719;42.714;23.732;2023-05-17T04:26:13;93911.75;;;14.51;100.00
11329;BME280;5719;42.714;23.732;2023-05-17T04:28:40;93903.44;;;14.65;100.00
11329;BME280;5719;42.714;23.732;2023-05-17T04:31:07;93906.34;;;14.80;100.00
11329;BME280;5719;42.714;23.732;2023-05-17T04:33:34;93897.78;;;14.88;100.00
11329;BME280;5719;42.714;23.732;2023-05-17T04:36:03;93908.72;;;14.91;100.00
11329;BME280;5719;42.714;23.732;2023-05-17T04:38:30;93894.56;;;14.94;100.00
11329;BME280;5719;42.714;23.732;2023-05-17T04:41:00;93897.94;;;15.04;100.00
11329;BME280;5719;42.714;23.732;2023-05-17T04:43:30;93889.44;;;15.02;100.00
11329;BME280;5719;42.714;23.732;2023-05-17T04:45:57;93884.81;;;15.13;100.00
11329;BME280;5719;42.714;23.732;2023-05-17T04:48:25;93887.88;;;15.09;100.00
11329;BME280;5719;42.714;23.732;2023-05-17T04:50:52;93898.41;;;15.25;100.00
11329;BME280;5719;42.714;23.732;2023-05-17T04:53:20;93903.56;;;15.43;100.00
11329;BME280;5719;42.714;23.732;2023-05-17T04:55:47;93900.31;;;15.41;100.00
11329;BME280;5719;42.714;23.732;2023-05-17T04:58:14;93903.06;;;15.39;100.00
11329;BME280;5719;42.714;23.732;2023-05-17T05:00:41;93890.81;;;15.57;100.00
11329;BME280;5719;42.714;23.732;2023-05-17T05:03:08;93893.03;;;15.70;100.00
11329;BME280;5719;42.714;23.732;2023-05-17T05:05:35;93886.41;;;15.84;100.00
11329;BME280;5719;42.714;23.732;2023-05-17T05:08:02;93884.38;;;16.11;100.00
11329;BME280;5719;42.714;23.732;2023-05-17T05:10:31;93865.53;;;16.26;100.00
11329;BME280;5719;42.714;23.732;2023-05-17T05:12:58;93887.59;;;16.39;100.00
11329;BME280;5719;42.714;23.732;2023-05-17T05:15:25;93883.56;;;16.69;98.83
11329;BME280;5719;42.714;23.732;2023-05-17T05:17:52;93883.59;;;16.85;96.37
11329;BME280;5719;42.714;23.732;2023-05-17T05:20:20;93886.69;;;17.13;94.96
11329;BME280;5719;42.714;23.732;2023-05-17T05:22:47;93885.88;;;17.21;93.97
11329;BME280;5719;42.714;23.732;2023-05-17T05:25:14;93891.75;;;17.31;95.14
11329;BME280;5719;42.714;23.732;2023-05-17T05:27:43;93855.22;;;16.90;94.63
11329;BME280;5719;42.714;23.732;2023-05-17T05:30:10;93884.72;;;17.31;94.15
11329;BME280;5719;42.714;23.732;2023-05-17T05:32:46;93894.50;;;17.61;91.69
11329;BME280;5719;42.714;23.732;2023-05-17T05:35:14;93896.28;;;17.77;91.25
11329;BME280;5719;42.714;23.732;2023-05-17T05:37:41;93895.34;;;18.09;89.99
11329;BME280;5719;42.714;23.732;2023-05-17T05:40:09;93893.00;;;18.22;89.06
11329;BME280;5719;42.714;23.732;2023-05-17T05:42:36;93869.66;;;18.12;87.90
11329;BME280;5719;42.714;23.732;2023-05-17T05:45:05;93902.47;;;18.31;88.88
11329;BME280;5719;42.714;23.732;2023-05-17T05:47:32;93882.16;;;18.02;88.47
11329;BME280;5719;42.714;23.732;2023-05-17T05:49:59;93908.34;;;18.25;88.99
11329;BME280;5719;42.714;23.732;2023-05-17T05:52:26;93895.69;;;17.59;90.54
11329;BME280;5719;42.714;23.732;2023-05-17T05:54:53;93903.16;;;17.46;93.81
11329;BME280;5719;42.714;23.732;2023-05-17T05:57:20;93912.13;;;17.76;92.06
11329;BME280;5719;42.714;23.732;2023-05-17T05:59:47;93919.19;;;17.59;91.54
11329;BME280;5719;42.714;23.732;2023-05-17T06:02:15;93921.47;;;17.70;92.76
11329;BME280;5719;42.714;23.732;2023-05-17T06:04:43;93923.41;;;17.76;92.52
11329;BME280;5719;42.714;23.732;2023-05-17T06:07:11;93922.94;;;17.48;94.94
11329;BME280;5719;42.714;23.732;2023-05-17T06:09:38;93922.28;;;17.14;97.40
11329;BME280;5719;42.714;23.732;2023-05-17T06:12:05;93932.53;;;16.83;99.85
11329;BME280;5719;42.714;23.732;2023-05-17T06:14:32;93935.97;;;16.76;100.00
11329;BME280;5719;42.714;23.732;2023-05-17T06:16:59;93938.88;;;16.73;100.00
11329;BME280;5719;42.714;23.732;2023-05-17T06:19:27;93934.56;;;16.47;100.00
11329;BME280;5719;42.714;23.732;2023-05-17T06:21:54;93940.38;;;15.99;100.00
11329;BME280;5719;42.714;23.732;2023-05-17T06:24:21;93947.44;;;16.07;100.00
11329;BME280;5719;42.714;23.732;2023-05-17T06:26:48;93946.78;;;16.05;100.00
11329;BME280;5719;42.714;23.732;2023-05-17T06:29:15;93937.38;;;16.12;100.00
11329;BME280;5719;42.714;23.732;2023-05-17T06:31:42;93939.78;;;16.39;100.00
11329;BME280;5719;42.714;23.732;2023-05-17T06:34:09;93930.66;;;16.51;100.00
11329;BME280;5719;42.714;23.732;2023-05-17T06:36:37;93930.22;;;16.72;100.00
11329;BME280;5719;42.714;23.732;2023-05-17T06:39:04;93933.72;;;17.13;100.00
11329;BME280;5719;42.714;23.732;2023-05-17T06:41:33;93929.44;;;17.52;100.00
11329;BME280;5719;42.714;23.732;2023-05-17T06:44:00;93935.66;;;17.76;99.32
11329;BME280;5719;42.714;23.732;2023-05-17T06:46:27;93931.38;;;17.99;98.05
11329;BME280;5719;42.714;23.732;2023-05-17T06:48:53;93931.63;;;18.12;94.23
11329;BME280;5719;42.714;23.732;2023-05-17T06:51:20;93927.00;;;18.22;94.26
11329;BME280;5719;42.714;23.732;2023-05-17T06:53:49;93919.47;;;18.35;93.23
11329;BME280;5719;42.714;23.732;2023-05-17T06:56:17;93917.34;;;18.92;89.83
11329;BME280;5719;42.714;23.732;2023-05-17T06:58:44;93921.94;;;19.58;87.40
11329;BME280;5719;42.714;23.732;2023-05-17T07:01:11;93924.25;;;19.91;83.74
11329;BME280;5719;42.714;23.732;2023-05-17T07:03:38;93926.34;;;20.10;82.22
11329;BME280;5719;42.714;23.732;2023-05-17T07:06:06;93921.47;;;20.36;81.24
11329;BME280;5719;42.714;23.732;2023-05-17T07:08:33;93924.97;;;20.58;78.81
11329;BME280;5719;42.714;23.732;2023-05-17T07:11:01;93916.94;;;20.81;79.75
11329;BME280;5719;42.714;23.732;2023-05-17T07:13:29;93922.88;;;21.25;77.57
11329;BME280;5719;42.714;23.732;2023-05-17T07:15:57;93901.78;;;21.40;75.50
11329;BME280;5719;42.714;23.732;2023-05-17T07:18:25;93928.84;;;21.89;74.04
11329;BME280;5719;42.714;23.732;2023-05-17T07:20:52;93927.31;;;21.95;73.37
11329;BME280;5719;42.714;23.732;2023-05-17T07:23:19;93942.72;;;21.98;73.38
11329;BME280;5719;42.714;23.732;2023-05-17T07:25:46;93934.63;;;21.93;73.08
11329;BME280;5719;42.714;23.732;2023-05-17T07:28:14;93944.53;;;21.97;72.38
11329;BME280;5719;42.714;23.732;2023-05-17T07:30:41;93929.34;;;21.72;74.23
11329;BME280;5719;42.714;23.732;2023-05-17T07:33:08;93947.31;;;21.68;74.86
11329;BME280;5719;42.714;23.732;2023-05-17T07:35:35;93952.38;;;21.06;78.96
11329;BME280;5719;42.714;23.732;2023-05-17T07:38:02;93954.31;;;20.62;79.20
11329;BME280;5719;42.714;23.732;2023-05-17T07:40:29;93949.44;;;20.29;80.45
11329;BME280;5719;42.714;23.732;2023-05-17T07:42:57;93954.06;;;19.75;84.88
11329;BME280;5719;42.714;23.732;2023-05-17T07:45:26;93959.09;;;20.14;83.26
11329;BME280;5719;42.714;23.732;2023-05-17T07:47:53;93951.34;;;20.50;83.23
11329;BME280;5719;42.714;23.732;2023-05-17T07:50:21;93947.47;;;20.82;82.10
11329;BME280;5719;42.714;23.732;2023-05-17T07:52:48;93942.22;;;21.18;80.63
11329;BME280;5719;42.714;23.732;2023-05-17T07:55:15;93941.09;;;21.27;78.49
11329;BME280;5719;42.714;23.732;2023-05-17T07:57:42;93940.47;;;20.89;79.11
11329;BME280;5719;42.714;23.732;2023-05-17T08:00:10;93941.03;;;20.84;80.48
11329;BME280;5719;42.714;23.732;2023-05-17T08:02:39;93933.78;;;21.22;78.00
11329;BME280;5719;42.714;23.732;2023-05-17T08:05:07;93943.34;;;21.51;77.41
11329;BME280;5719;42.714;23.732;2023-05-17T08:07:34;93938.38;;;21.63;76.24
11329;BME280;5719;42.714;23.732;2023-05-17T08:10:01;93937.00;;;21.67;76.25
11329;BME280;5719;42.714;23.732;2023-05-17T08:12:28;93943.78;;;21.12;78.22
11329;BME280;5719;42.714;23.732;2023-05-17T08:14:55;93939.38;;;20.47;82.56
11329;BME280;5719;42.714;23.732;2023-05-17T08:17:22;93929.53;;;20.85;81.00
11329;BME280;5719;42.714;23.732;2023-05-17T08:19:50;93936.41;;;20.50;81.48
11329;BME280;5719;42.714;23.732;2023-05-17T08:22:18;93935.19;;;20.68;80.84
11329;BME280;5719;42.714;23.732;2023-05-17T08:24:45;93929.41;;;20.58;82.10
11329;BME280;5719;42.714;23.732;2023-05-17T08:40:07;93918.53;;;21.39;78.68
11329;BME280;5719;42.714;23.732;2023-05-17T08:42:35;93929.19;;;21.52;77.60
11329;BME280;5719;42.714;23.732;2023-05-17T08:45:04;93931.44;;;21.55;78.82
11329;BME280;5719;42.714;23.732;2023-05-17T08:47:31;93925.94;;;21.50;77.22
11329;BME280;5719;42.714;23.732;2023-05-17T08:49:58;93922.88;;;21.25;80.63
11329;BME280;5719;42.714;23.732;2023-05-17T08:52:29;93918.25;;;21.48;79.46
11329;BME280;5719;42.714;23.732;2023-05-17T08:54:58;93916.13;;;21.65;78.04
11329;BME280;5719;42.714;23.732;2023-05-17T08:57:29;93914.63;;;21.77;78.29
11329;BME280;5719;42.714;23.732;2023-05-17T08:59:57;93919.53;;;21.87;78.16
11329;BME280;5719;42.714;23.732;2023-05-17T09:02:25;93919.03;;;21.98;76.29
11329;BME280;5719;42.714;23.732;2023-05-17T09:04:54;93916.75;;;22.23;74.69
11329;BME280;5719;42.714;23.732;2023-05-17T09:07:21;93924.75;;;21.31;75.37
11329;BME280;5719;42.714;23.732;2023-05-17T09:09:50;93922.97;;;20.96;80.08
11329;BME280;5719;42.714;23.732;2023-05-17T09:12:18;93912.13;;;21.41;78.29
11329;BME280;5719;42.714;23.732;2023-05-17T09:14:46;93910.44;;;21.62;79.33
11329;BME280;5719;42.714;23.732;2023-05-17T09:17:15;93918.53;;;20.96;79.97
11329;BME280;5719;42.714;23.732;2023-05-17T09:19:43;93921.06;;;21.26;79.88
11329;BME280;5719;42.714;23.732;2023-05-17T09:22:12;93917.97;;;21.01;80.08
11329;BME280;5719;42.714;23.732;2023-05-17T09:24:40;93922.16;;;20.60;83.30
11329;BME280;5719;42.714;23.732;2023-05-17T09:27:07;93933.97;;;20.34;85.19
11329;BME280;5719;42.714;23.732;2023-05-17T09:29:35;93937.94;;;20.30;86.13
11329;BME280;5719;42.714;23.732;2023-05-17T09:32:12;93928.63;;;20.28;85.89
11329;BME280;5719;42.714;23.732;2023-05-17T09:34:40;93932.56;;;20.09;87.61
11329;BME280;5719;42.714;23.732;2023-05-17T09:37:11;93937.88;;;19.72;88.56
11329;BME280;5719;42.714;23.732;2023-05-17T09:39:40;93936.50;;;19.38;92.23
11329;BME280;5719;42.714;23.732;2023-05-17T09:42:09;93929.47;;;19.16;91.23
11329;BME280;5719;42.714;23.732;2023-05-17T09:44:46;93947.00;;;19.16;92.55
11329;BME280;5719;42.714;23.732;2023-05-17T09:47:25;93942.09;;;18.90;94.51
11329;BME280;5719;42.714;23.732;2023-05-17T09:49:54;93946.75;;;18.80;93.74
11329;BME280;5719;42.714;23.732;2023-05-17T09:52:23;93955.19;;;18.59;95.71
11329;BME280;5719;42.714;23.732;2023-05-17T09:54:55;93949.94;;;18.59;96.75
11329;BME280;5719;42.714;23.732;2023-05-17T09:57:24;93948.13;;;18.29;98.73
11329;BME280;5719;42.714;23.732;2023-05-17T09:59:54;93949.56;;;18.31;99.20
11329;BME280;5719;42.714;23.732;2023-05-17T10:02:27;93949.59;;;18.23;98.61
11329;BME280;5719;42.714;23.732;2023-05-17T10:04:57;93953.03;;;18.16;99.84
11329;BME280;5719;42.714;23.732;2023-05-17T10:07:28;93954.84;;;18.15;98.03
11329;BME280;5719;42.714;23.732;2023-05-17T10:09:56;93948.06;;;18.37;97.31
11329;BME280;5719;42.714;23.732;2023-05-17T10:12:26;93947.59;;;18.25;96.71
11329;BME280;5719;42.714;23.732;2023-05-17T10:14:55;93942.66;;;18.38;96.48
11329;BME280;5719;42.714;23.732;2023-05-17T10:17:27;93945.41;;;18.53;94.83
11329;BME280;5719;42.714;23.732;2023-05-17T10:19:54;93952.63;;;18.43;96.27
11329;BME280;5719;42.714;23.732;2023-05-17T10:22:23;93945.75;;;18.42;95.34
11329;BME280;5719;42.714;23.732;2023-05-17T10:24:51;93942.09;;;18.20;92.93
11329;BME280;5719;42.714;23.732;2023-05-17T10:27:19;93938.13;;;18.32;92.82
11329;BME280;5719;42.714;23.732;2023-05-17T10:29:46;93943.53;;;18.23;92.17
11329;BME280;5719;42.714;23.732;2023-05-17T10:32:14;93938.38;;;18.06;95.76
11329;BME280;5719;42.714;23.732;2023-05-17T10:34:44;93926.88;;;18.16;95.47
11329;BME280;5719;42.714;23.732;2023-05-17T10:37:14;93925.31;;;18.37;93.01
11329;BME280;5719;42.714;23.732;2023-05-17T10:39:45;93915.06;;;18.67;90.67
11329;BME280;5719;42.714;23.732;2023-05-17T10:42:16;93912.97;;;18.85;88.65
11329;BME280;5719;42.714;23.732;2023-05-17T10:44:45;93894.75;;;18.91;88.32
11329;BME280;5719;42.714;23.732;2023-05-17T10:47:14;93896.81;;;19.04;86.19
11329;BME280;5719;42.714;23.732;2023-05-17T10:49:43;93891.56;;;19.27;85.53
11329;BME280;5719;42.714;23.732;2023-05-17T10:52:13;93892.59;;;19.18;82.29
11329;BME280;5719;42.714;23.732;2023-05-17T10:54:43;93884.41;;;19.58;85.35
11329;BME280;5719;42.714;23.732;2023-05-17T10:57:18;93881.97;;;19.86;80.46
11329;BME280;5719;42.714;23.732;2023-05-17T10:59:58;93888.69;;;20.18;78.47
11329;BME280;5719;42.714;23.732;2023-05-17T11:02:26;93878.63;;;20.50;75.94
11329;BME280;5719;42.714;23.732;2023-05-17T11:04:56;93881.97;;;20.80;72.85
11329;BME280;5719;42.714;23.732;2023-05-17T11:07:26;93882.75;;;21.17;73.30
11329;BME280;5719;42.714;23.732;2023-05-17T11:10:00;93888.44;;;21.41;74.52
11329;BME280;5719;42.714;23.732;2023-05-17T11:12:32;93897.50;;;21.39;71.16
11329;BME280;5719;42.714;23.732;2023-05-17T11:15:03;93891.59;;;21.58;72.12
11329;BME280;5719;42.714;23.732;2023-05-17T11:17:34;93891.94;;;21.48;72.05
11329;BME280;5719;42.714;23.732;2023-05-17T11:20:08;93890.41;;;21.12;74.20
11329;BME280;5719;42.714;23.732;2023-05-17T11:22:41;93886.59;;;20.99;77.69
11329;BME280;5719;42.714;23.732;2023-05-17T11:25:10;93891.63;;;20.94;76.30
11329;BME280;5719;42.714;23.732;2023-05-17T11:27:43;93896.69;;;20.96;76.92
11329;BME280;5719;42.714;23.732;2023-05-17T11:30:17;93895.47;;;20.77;76.87
11329;BME280;5719;42.714;23.732;2023-05-17T11:32:49;93889.88;;;20.66;77.36
11329;BME280;5719;42.714;23.732;2023-05-17T11:35:22;93905.13;;;20.26;77.31
11329;BME280;5719;42.714;23.732;2023-05-17T11:37:51;93908.06;;;20.31;79.30
11329;BME280;5719;42.714;23.732;2023-05-17T11:40:28;93914.19;;;20.24;79.24
11329;BME280;5719;42.714;23.732;2023-05-17T11:43:14;93915.66;;;19.97;79.54
11329;BME280;5719;42.714;23.732;2023-05-17T11:45:43;93915.84;;;19.95;80.93
11329;BME280;5719;42.714;23.732;2023-05-17T11:48:11;93922.50;;;19.83;79.48
11329;BME280;5719;42.714;23.732;2023-05-17T11:50:40;93918.81;;;19.78;80.54
11329;BME280;5719;42.714;23.732;2023-05-17T11:53:09;93921.16;;;19.73;81.17
11329;BME280;5719;42.714;23.732;2023-05-17T11:55:41;93911.06;;;19.47;82.71
11329;BME280;5719;42.714;23.732;2023-05-17T11:58:09;93903.19;;;19.47;82.59
11329;BME280;5719;42.714;23.732;2023-05-17T12:00:37;93904.25;;;19.38;82.73
11329;BME280;5719;42.714;23.732;2023-05-17T12:03:23;93897.28;;;19.07;84.61
11329;BME280;5719;42.714;23.732;2023-05-17T12:06:01;93895.69;;;18.98;85.85
11329;BME280;5719;42.714;23.732;2023-05-17T12:08:29;93895.59;;;18.92;85.15
11329;BME280;5719;42.714;23.732;2023-05-17T12:10:59;93894.72;;;18.99;86.31
11329;BME280;5719;42.714;23.732;2023-05-17T12:13:27;93899.13;;;18.99;84.82
11329;BME280;5719;42.714;23.732;2023-05-17T12:15:56;93898.72;;;18.87;86.78
11329;BME280;5719;42.714;23.732;2023-05-17T12:18:33;93897.72;;;18.88;86.07
11329;BME280;5719;42.714;23.732;2023-05-17T12:21:04;93891.09;;;18.78;88.79
11329;BME280;5719;42.714;23.732;2023-05-17T12:23:34;93897.91;;;19.09;87.71
11329;BME280;5719;42.714;23.732;2023-05-17T12:26:03;93889.31;;;19.01;86.54
11329;BME280;5719;42.714;23.732;2023-05-17T12:28:30;93894.88;;;19.21;84.82
11329;BME280;5719;42.714;23.732;2023-05-17T12:30:58;93893.38;;;19.26;85.85
11329;BME280;5719;42.714;23.732;2023-05-17T12:33:29;93895.41;;;18.93;86.02
11329;BME280;5719;42.714;23.732;2023-05-17T12:35:57;93894.19;;;18.50;88.88
11329;BME280;5719;42.714;23.732;2023-05-17T12:38:27;93887.94;;;18.29;92.38
11329;BME280;5719;42.714;23.732;2023-05-17T12:40:57;93894.91;;;18.36;92.95
11329;BME280;5719;42.714;23.732;2023-05-17T12:43:25;93889.13;;;18.49;91.10
11329;BME280;5719;42.714;23.732;2023-05-17T12:45:53;93886.75;;;18.62;91.65
11329;BME280;5719;42.714;23.732;2023-05-17T12:48:23;93891.50;;;18.67;89.48
11329;BME280;5719;42.714;23.732;2023-05-17T12:50:54;93894.00;;;18.60;90.62
11329;BME280;5719;42.714;23.732;2023-05-17T12:53:21;93890.09;;;18.56;92.92
11329;BME280;5719;42.714;23.732;2023-05-17T12:55:55;93883.28;;;18.70;92.38
11329;BME280;5719;42.714;23.732;2023-05-17T12:58:23;93885.75;;;18.71;90.70
11329;BME280;5719;42.714;23.732;2023-05-17T13:00:58;93881.50;;;18.93;91.95
11329;BME280;5719;42.714;23.732;2023-05-17T13:03:25;93886.38;;;18.96;91.32
11329;BME280;5719;42.714;23.732;2023-05-17T13:06:01;93879.19;;;18.98;89.56
11329;BME280;5719;42.714;23.732;2023-05-17T13:08:28;93872.25;;;19.05;90.39
11329;BME280;5719;42.714;23.732;2023-05-17T13:11:09;93875.34;;;19.08;91.12
11329;BME280;5719;42.714;23.732;2023-05-17T13:13:37;93873.84;;;19.06;88.33
11329;BME280;5719;42.714;23.732;2023-05-17T13:16:04;93861.25;;;19.24;85.50